createdAt,value
2023-03-06T00:01:51.960Z,99624.16
2023-03-06T00:04:39.631Z,99663.84
2023-03-06T00:07:27.369Z,99680.03
2023-03-06T00:10:20.826Z,99685.59
2023-03-06T00:13:12.369Z,99674.56
2023-03-06T00:16:03.652Z,99683.25
2023-03-06T00:18:51.604Z,99683.69
2023-03-06T00:21:41.468Z,99645.88
2023-03-06T00:24:29.302Z,99686.97
2023-03-06T00:27:16.797Z,99679.91
2023-03-06T00:30:04.999Z,99640.84
2023-03-06T00:32:54.634Z,99682.19
2023-03-06T00:35:43.890Z,99673.63
2023-03-06T00:38:35.669Z,99671.81
2023-03-06T00:41:23.469Z,99688.44
2023-03-06T00:44:11.055Z,99658.09
2023-03-06T00:46:58.748Z,99648.97
2023-03-06T00:49:46.576Z,99665.03
2023-03-06T00:52:34.257Z,99678.34
2023-03-06T00:55:22.592Z,99666.63
2023-03-06T00:58:10.327Z,99664.66
2023-03-06T01:00:58.039Z,99670.75
2023-03-06T01:03:45.890Z,99620.50
2023-03-06T01:06:34.650Z,99647.59
2023-03-06T01:09:24.593Z,99667.66
2023-03-06T01:12:14.469Z,99671.47
2023-03-06T01:15:02.375Z,99671.03
2023-03-06T01:17:53.622Z,99664.56
2023-03-06T01:20:41.299Z,99659.84
2023-03-06T01:23:29.061Z,99666.16
2023-03-06T01:26:16.957Z,99674.69
2023-03-06T01:29:04.843Z,99651.16
2023-03-06T01:31:53.150Z,99672.47
2023-03-06T01:34:40.780Z,99665.25
2023-03-06T01:37:28.690Z,99673.53
2023-03-06T01:40:16.959Z,99685.34
2023-03-06T01:43:27.060Z,99687.69
2023-03-06T01:46:32.950Z,99686.47
2023-03-06T01:49:25.968Z,99656.44
2023-03-06T01:52:17.466Z,99665.63
2023-03-06T01:55:28.215Z,99695.22
2023-03-06T01:58:19.203Z,99680.50
2023-03-06T02:01:07.105Z,99661.31
2023-03-06T02:03:55.705Z,99677.31
2023-03-06T02:06:44.035Z,99690.47
2023-03-06T02:09:34.410Z,99674.38
2023-03-06T02:12:22.547Z,99688.00
2023-03-06T02:15:12.612Z,99690.09
2023-03-06T02:18:00.807Z,99665.72
2023-03-06T02:20:54.713Z,99702.66
2023-03-06T02:24:00.500Z,99709.75
2023-03-06T02:26:48.704Z,99705.84
2023-03-06T02:29:36.990Z,99708.19
2023-03-06T02:32:24.711Z,99717.53
2023-03-06T02:35:25.620Z,99717.03
2023-03-06T02:38:17.946Z,99713.06
2023-03-06T02:41:08.866Z,99687.53
2023-03-06T02:43:56.546Z,99723.06
2023-03-06T02:46:44.420Z,99682.00
2023-03-06T02:49:32.092Z,99684.63
2023-03-06T02:52:20.095Z,99726.88
2023-03-06T02:55:08.294Z,99711.47
2023-03-06T02:57:55.972Z,99728.13
2023-03-06T03:00:44.548Z,99668.66
2023-03-06T03:03:33.494Z,99719.81
2023-03-06T03:06:21.425Z,99721.72
2023-03-06T03:09:10.057Z,99708.34
2023-03-06T03:11:57.699Z,99712.75
2023-03-06T03:14:45.452Z,99712.13
2023-03-06T03:17:37.303Z,99722.59
2023-03-06T03:20:25.096Z,99732.25
2023-03-06T03:23:12.694Z,99727.06
2023-03-06T03:26:13.005Z,99729.88
2023-03-06T03:29:05.362Z,99732.59
2023-03-06T03:31:53.130Z,99731.97
2023-03-06T03:34:40.913Z,99729.81
2023-03-06T03:37:28.770Z,99723.63
2023-03-06T03:40:17.163Z,99745.56
2023-03-06T03:43:04.944Z,99745.81
2023-03-06T03:46:02.316Z,99615.22
2023-03-06T03:48:50.070Z,99742.59
2023-03-06T03:51:38.002Z,99741.72
2023-03-06T03:54:25.927Z,99714.22
2023-03-06T04:00:38.510Z,99742.09
2023-03-06T04:03:32.937Z,99719.09
2023-03-06T04:06:23.932Z,99745.44
2023-03-06T04:09:11.856Z,99748.56
2023-03-06T04:11:59.838Z,99726.53
2023-03-06T04:14:47.506Z,99748.88
2023-03-06T04:17:50.719Z,99750.59
2023-03-06T04:20:42.753Z,99673.19
2023-03-06T04:23:31.217Z,99756.16
2023-03-06T04:26:18.972Z,99739.31
2023-03-06T04:29:28.068Z,99742.44
2023-03-06T04:32:24.226Z,99756.44
2023-03-06T04:35:15.581Z,99732.69
2023-03-06T04:38:12.680Z,99757.22
2023-03-06T04:41:31.228Z,99758.56
2023-03-06T04:44:18.866Z,99756.44
2023-03-06T04:47:06.986Z,99763.78
2023-03-06T04:50:46.631Z,99761.50
2023-03-06T04:54:07.631Z,99738.81
2023-03-06T04:56:57.997Z,99763.38
2023-03-06T04:59:45.758Z,99759.97
2023-03-06T05:02:33.768Z,99773.63
2023-03-06T05:05:21.536Z,99750.16
2023-03-06T05:08:13.240Z,99789.00
2023-03-06T05:11:04.958Z,99769.88
2023-03-06T05:13:54.880Z,99775.50
2023-03-06T05:16:45.459Z,99787.81
2023-03-06T05:19:33.127Z,99795.56
2023-03-06T05:22:20.911Z,99794.50
2023-03-06T05:25:10.871Z,99785.31
2023-03-06T05:27:58.754Z,99787.44
2023-03-06T05:30:46.405Z,99793.88
2023-03-06T05:33:35.411Z,99791.59
2023-03-06T05:36:25.354Z,99776.91
2023-03-06T05:39:13.412Z,99804.09
2023-03-06T05:42:01.231Z,99814.25
2023-03-06T05:44:48.967Z,99807.38
2023-03-06T05:47:36.635Z,99820.25
2023-03-06T05:50:26.677Z,99816.97
2023-03-06T05:53:14.287Z,99828.06
2023-03-06T05:56:06.397Z,99832.00
2023-03-06T05:58:54.085Z,99812.84
2023-03-06T06:01:41.839Z,99828.47
2023-03-06T06:04:29.479Z,99814.66
2023-03-06T06:07:17.686Z,99852.59
2023-03-06T06:10:07.038Z,99839.25
2023-03-06T06:12:54.714Z,99859.34
2023-03-06T06:15:45.556Z,99831.81
2023-03-06T06:18:33.295Z,99826.03
2023-03-06T06:21:20.957Z,99829.13
2023-03-06T06:24:11.435Z,99860.50
2023-03-06T06:27:02.582Z,99821.44
2023-03-06T06:29:52.572Z,99854.84
2023-03-06T06:32:40.346Z,99822.03
2023-03-06T06:35:28.093Z,99845.41
2023-03-06T06:38:15.946Z,99860.78
2023-03-06T06:41:51.039Z,99855.31
2023-03-06T06:44:35.497Z,99857.53
2023-03-06T06:47:26.177Z,99831.34
2023-03-06T06:50:14.497Z,99857.56
2023-03-06T06:53:02.244Z,99863.31
2023-03-06T06:55:58.136Z,99860.28
2023-03-06T06:58:45.885Z,99867.41
2023-03-06T07:01:33.554Z,99858.13
2023-03-06T07:04:21.403Z,99870.22
2023-03-06T07:07:08.992Z,99856.69
2023-03-06T07:10:17.671Z,99798.06
2023-03-06T07:13:08.842Z,99868.72
2023-03-06T07:15:56.673Z,99854.72
2023-03-06T07:18:44.831Z,99876.22
2023-03-06T07:21:32.728Z,99886.72
2023-03-06T07:24:20.360Z,99881.06
2023-03-06T07:27:08.101Z,99887.69
2023-03-06T07:29:58.294Z,99883.84
2023-03-06T07:32:46.159Z,99858.72
2023-03-06T07:35:34.261Z,99884.66
2023-03-06T07:38:22.130Z,99859.94
2023-03-06T07:41:52.601Z,99873.81
2023-03-06T07:44:42.983Z,99890.38
2023-03-06T07:47:30.689Z,99891.84
2023-03-06T07:50:23.695Z,99876.50
2023-03-06T07:53:11.648Z,99883.56
2023-03-06T07:55:59.989Z,99893.69
2023-03-06T07:58:48.147Z,99889.75
2023-03-06T08:01:36.653Z,99897.88
2023-03-06T08:04:24.268Z,99884.16
2023-03-06T08:07:13.418Z,99878.34
2023-03-06T08:10:01.297Z,99896.38
2023-03-06T08:12:53.400Z,99897.59
2023-03-06T08:15:41.079Z,99893.63
2023-03-06T08:18:32.189Z,99897.88
2023-03-06T08:21:23.992Z,99900.75
2023-03-06T08:24:13.473Z,99903.75
2023-03-06T08:27:01.258Z,99902.44
2023-03-06T08:29:49.091Z,99895.34
2023-03-06T08:32:37.327Z,99897.50
2023-03-06T08:35:25.197Z,99898.22
2023-03-06T08:38:12.957Z,99890.41
2023-03-06T08:41:00.741Z,99874.81
2023-03-06T08:43:49.363Z,99891.72
2023-03-06T08:46:37.805Z,99824.06
2023-03-06T08:49:25.754Z,99883.69
2023-03-06T08:52:13.519Z,99890.03
2023-03-06T08:55:03.761Z,99847.41
2023-03-06T08:57:51.533Z,99874.97
2023-03-06T09:00:40.497Z,99874.75
2023-03-06T09:03:28.273Z,99888.97
2023-03-06T09:06:16.536Z,99868.63
2023-03-06T09:09:05.616Z,99869.72
2023-03-06T09:11:53.847Z,99861.94
2023-03-06T09:14:41.834Z,99873.81
2023-03-06T09:17:30.168Z,99869.88
2023-03-06T09:20:21.347Z,99885.06
2023-03-06T09:23:10.228Z,99873.56
2023-03-06T09:26:01.710Z,99873.97
2023-03-06T09:28:50.526Z,99847.06
2023-03-06T09:31:38.263Z,99873.09
2023-03-06T09:34:29.458Z,99869.47
2023-03-06T09:37:18.173Z,99865.28
2023-03-06T09:40:08.949Z,99882.66
2023-03-06T09:42:56.659Z,99875.06
2023-03-06T09:45:44.821Z,99851.34
2023-03-06T09:48:54.925Z,99870.75
2023-03-06T09:52:02.141Z,99862.75
2023-03-06T09:55:02.576Z,99871.41
2023-03-06T09:57:51.227Z,99858.75
2023-03-06T10:01:01.333Z,99865.03
2023-03-06T10:04:18.264Z,99869.22
2023-03-06T10:07:19.621Z,99850.13
2023-03-06T10:10:16.937Z,99857.72
2023-03-06T10:13:27.904Z,99860.94
2023-03-06T10:16:32.891Z,99857.38
2023-03-06T10:19:22.473Z,99852.84
2023-03-06T10:22:18.854Z,99859.38
2023-03-06T10:25:19.991Z,99857.13
2023-03-06T10:28:18.508Z,99844.81
2023-03-06T10:31:28.449Z,99849.66
2023-03-06T10:34:23.091Z,99844.78
2023-03-06T10:37:19.842Z,99824.97
2023-03-06T10:40:19.489Z,99822.56
2023-03-06T10:43:12.449Z,99816.41
2023-03-06T10:46:03.435Z,99808.16
2023-03-06T10:48:59.126Z,99793.31
2023-03-06T10:52:00.109Z,99797.47
2023-03-06T10:54:50.936Z,99764.28
2023-03-06T10:57:40.082Z,99779.69
2023-03-06T11:00:36.249Z,99787.41
2023-03-06T11:03:24.836Z,99791.44
2023-03-06T11:06:30.668Z,99753.88
2023-03-06T11:09:26.083Z,99763.34
2023-03-06T11:12:27.900Z,99763.13
2023-03-06T11:15:41.446Z,99747.91
2023-03-06T11:18:35.202Z,99754.00
2023-03-06T11:21:34.973Z,99735.97
2023-03-06T11:24:22.692Z,99748.25
2023-03-06T11:27:38.364Z,99754.97
2023-03-06T11:30:45.632Z,99721.31
2023-03-06T11:33:46.603Z,99741.66
2023-03-06T11:36:50.706Z,99739.66
2023-03-06T11:39:48.275Z,99726.91
2023-03-06T11:42:43.077Z,99722.88
2023-03-06T11:45:42.652Z,99723.34
2023-03-06T11:48:46.699Z,99720.56
2023-03-06T11:51:41.421Z,99711.06
2023-03-06T11:54:29.198Z,99687.53
2023-03-06T11:57:30.948Z,99698.59
2023-03-06T12:00:41.403Z,99674.47
2023-03-06T12:03:38.023Z,99672.44
2023-03-06T12:07:12.126Z,99696.66
2023-03-06T12:10:18.108Z,99680.81
2023-03-06T12:13:41.103Z,99685.25
2023-03-06T12:16:58.896Z,99684.84
2023-03-06T12:19:46.660Z,99681.28
2023-03-06T12:22:58.032Z,99671.34
2023-03-06T12:26:19.700Z,99660.28
2023-03-06T12:29:44.437Z,99659.09
2023-03-06T12:33:02.957Z,99659.84
2023-03-06T12:35:59.486Z,99662.25
2023-03-06T12:39:08.208Z,99616.94
2023-03-06T12:42:02.498Z,99642.75
2023-03-06T12:45:09.974Z,99634.00
2023-03-06T12:47:58.410Z,99634.78
2023-03-06T12:50:49.248Z,99624.38
2023-03-06T12:53:44.516Z,99632.03
2023-03-06T12:56:33.872Z,99610.19
2023-03-06T12:59:48.734Z,99598.69
2023-03-06T13:02:39.172Z,99599.06
2023-03-06T13:05:34.806Z,99618.50
2023-03-06T13:08:34.260Z,99620.06
2023-03-06T13:11:39.741Z,99617.72
2023-03-06T13:14:42.344Z,99609.78
2023-03-06T13:17:41.882Z,99603.41
2023-03-06T13:20:41.919Z,99610.97
2023-03-06T13:23:29.677Z,99607.72
2023-03-06T13:26:26.879Z,99582.38
2023-03-06T13:29:36.045Z,99603.44
2023-03-06T13:32:31.514Z,99593.91
2023-03-06T13:35:34.370Z,99602.59
2023-03-06T13:38:42.484Z,99593.91
2023-03-06T13:41:32.865Z,99585.56
2023-03-06T13:44:26.769Z,99569.25
2023-03-06T13:47:26.317Z,99580.38
2023-03-06T13:50:39.029Z,99574.44
2023-03-06T13:53:45.173Z,99572.03
2023-03-06T13:56:59.023Z,99558.50
2023-03-06T14:00:12.408Z,99566.31
2023-03-06T14:03:37.974Z,99569.97
2023-03-06T14:06:34.743Z,99516.25
2023-03-06T14:09:30.419Z,99570.28
2023-03-06T14:12:24.331Z,99553.69
2023-03-06T14:15:24.644Z,99551.69
2023-03-06T14:18:15.117Z,99552.13
2023-03-06T14:21:12.090Z,99550.44
2023-03-06T14:24:04.390Z,99548.06
2023-03-06T14:26:52.434Z,99535.44
2023-03-06T14:29:40.044Z,99545.44
2023-03-06T14:32:27.870Z,99526.34
2023-03-06T14:35:26.911Z,99537.03
2023-03-06T14:38:16.509Z,99553.19
2023-03-06T14:41:06.559Z,99541.72
2023-03-06T14:44:18.342Z,99545.06
2023-03-06T14:47:24.254Z,99544.66
2023-03-06T14:50:24.434Z,99549.41
2023-03-06T14:53:19.221Z,99539.06
2023-03-06T14:56:07.873Z,99548.94
2023-03-06T14:59:01.631Z,99538.22
2023-03-06T15:01:52.895Z,99527.53
2023-03-06T15:04:51.569Z,99503.59
2023-03-06T15:07:43.185Z,99523.56
2023-03-06T15:10:34.713Z,99500.09
2023-03-06T15:13:28.161Z,99527.88
2023-03-06T15:16:18.126Z,99539.38
2023-03-06T15:22:39.117Z,99530.88
2023-03-06T15:25:32.425Z,99514.81
2023-03-06T15:28:38.018Z,99527.47
2023-03-06T15:31:31.122Z,99526.56
2023-03-06T15:34:23.921Z,99519.84
2023-03-06T15:37:28.007Z,99503.50
2023-03-06T15:40:23.937Z,99518.88
2023-03-06T15:43:12.064Z,99532.63
2023-03-06T15:46:01.208Z,99536.88
2023-03-06T15:48:53.672Z,99538.53
2023-03-06T15:51:43.862Z,99541.16
2023-03-06T15:54:32.998Z,99548.03
2023-03-06T15:57:25.097Z,99528.03
2023-03-06T16:00:28.488Z,99555.25
2023-03-06T16:03:18.266Z,99545.56
2023-03-06T16:06:06.951Z,99550.56
2023-03-06T16:08:54.622Z,99558.97
2023-03-06T16:11:47.553Z,99559.97
2023-03-06T16:14:38.307Z,99556.22
2023-03-06T16:17:26.060Z,99557.13
2023-03-06T16:20:22.344Z,99555.81
2023-03-06T16:23:10.905Z,99555.50
2023-03-06T16:25:58.680Z,99556.16
2023-03-06T16:28:47.048Z,99561.38
2023-03-06T16:31:36.418Z,99561.91
2023-03-06T16:34:24.937Z,99561.25
2023-03-06T16:37:14.358Z,99553.69
2023-03-06T16:40:09.628Z,99577.47
2023-03-06T16:42:57.265Z,99568.03
2023-03-06T16:45:45.257Z,99543.03
2023-03-06T16:48:41.205Z,99542.56
2023-03-06T16:51:38.124Z,99564.81
2023-03-06T16:54:26.437Z,99551.94
2023-03-06T16:57:17.962Z,99550.38
2023-03-06T17:00:06.842Z,99568.66
2023-03-06T17:03:02.191Z,99567.50
2023-03-06T17:05:49.930Z,99562.97
2023-03-06T17:08:37.753Z,99562.72
2023-03-06T17:11:25.640Z,99562.25
2023-03-06T17:14:13.466Z,99560.50
2023-03-06T17:17:04.199Z,99559.88
2023-03-06T17:19:52.896Z,99563.59
2023-03-06T17:22:44.551Z,99537.97
2023-03-06T17:25:35.212Z,99564.25
2023-03-06T17:28:26.877Z,99571.94
2023-03-06T17:31:20.361Z,99570.25
2023-03-06T17:34:08.210Z,99562.19
2023-03-06T17:36:56.901Z,99548.28
2023-03-06T17:39:45.736Z,99531.94
2023-03-06T17:42:36.214Z,99567.31
2023-03-06T17:45:25.162Z,99525.28
2023-03-06T17:48:25.804Z,99561.66
2023-03-06T17:51:14.745Z,99575.66
2023-03-06T17:54:03.579Z,99562.28
2023-03-06T17:56:54.799Z,99553.47
2023-03-06T17:59:48.802Z,99555.09
2023-03-06T18:02:36.700Z,99529.25
2023-03-06T18:05:24.701Z,99555.97
2023-03-06T18:08:13.685Z,99564.09
2023-03-06T18:11:06.719Z,99568.72
2023-03-06T18:13:54.566Z,99572.75
2023-03-06T18:17:01.191Z,99571.56
2023-03-06T18:19:48.912Z,99579.72
2023-03-06T18:22:39.648Z,99579.88
2023-03-06T18:25:27.616Z,99570.78
2023-03-06T18:28:18.543Z,99577.44
2023-03-06T18:34:00.442Z,99540.13
2023-03-06T18:36:51.010Z,99560.69
2023-03-06T18:39:38.792Z,99549.47
2023-03-06T18:42:26.783Z,99562.50
2023-03-06T18:45:14.584Z,99564.00
2023-03-06T18:48:05.119Z,99537.69
2023-03-06T18:50:52.960Z,99551.75
2023-03-06T18:53:41.554Z,99541.91
2023-03-06T18:56:29.376Z,99549.81
2023-03-06T18:59:18.904Z,99556.09
2023-03-06T19:02:07.363Z,99537.91
2023-03-06T19:04:55.181Z,99530.56
2023-03-06T19:07:43.073Z,99549.75
2023-03-06T19:10:31.488Z,99551.72
2023-03-06T19:13:19.598Z,99546.91
2023-03-06T19:16:07.894Z,99515.91
2023-03-06T19:18:57.515Z,99541.53
2023-03-06T19:21:45.733Z,99542.22
2023-03-06T19:24:33.758Z,99548.97
2023-03-06T19:27:21.688Z,99550.34
2023-03-06T19:30:10.101Z,99551.78
2023-03-06T19:32:57.989Z,99544.00
2023-03-06T19:35:46.015Z,99549.22
2023-03-06T19:38:36.431Z,99549.81
2023-03-06T19:41:25.236Z,99554.75
2023-03-06T19:44:13.216Z,99542.22
2023-03-06T19:47:01.041Z,99549.09
2023-03-06T19:49:48.982Z,99539.75
2023-03-06T19:52:38.572Z,99538.44
2023-03-06T19:55:28.935Z,99538.63
2023-03-06T19:58:16.729Z,99526.38
2023-03-06T20:01:13.802Z,99511.75
2023-03-06T20:04:02.273Z,99528.81
2023-03-06T20:06:53.555Z,99513.53
2023-03-06T20:09:44.368Z,99510.19
2023-03-06T20:12:33.498Z,99519.88
2023-03-06T20:15:41.544Z,99507.56
2023-03-06T20:19:27.053Z,99480.00
2023-03-06T20:22:14.800Z,99497.72
2023-03-06T20:25:04.567Z,99479.38
2023-03-06T20:27:54.867Z,99506.34
2023-03-06T20:30:42.500Z,99506.16
2023-03-06T20:33:30.251Z,99522.97
2023-03-06T20:36:23.703Z,99507.13
2023-03-06T20:39:16.963Z,99506.03
2023-03-06T20:42:05.240Z,99517.47
2023-03-06T20:44:53.007Z,99479.44
2023-03-06T20:47:47.526Z,99507.06
2023-03-06T20:50:35.163Z,99501.75
2023-03-06T20:53:22.735Z,99497.19
2023-03-06T20:56:15.234Z,99505.72
2023-03-06T20:59:04.156Z,99499.50
2023-03-06T21:01:51.876Z,99494.88
2023-03-06T21:04:41.253Z,99514.22
2023-03-06T21:07:28.952Z,99480.75
2023-03-06T21:10:16.611Z,99467.13
2023-03-06T21:13:04.395Z,99504.28
2023-03-06T21:15:52.164Z,99497.19
2023-03-06T21:18:40.295Z,99493.13
2023-03-06T21:21:31.288Z,99479.72
2023-03-06T21:24:21.230Z,99490.00
2023-03-06T21:27:09.140Z,99497.22
2023-03-06T21:29:57.306Z,99500.13
2023-03-06T21:32:45.050Z,99491.97
2023-03-06T21:35:36.849Z,99495.84
2023-03-06T21:38:24.517Z,99487.19
2023-03-06T21:41:18.435Z,99490.47
2023-03-06T21:44:06.883Z,99484.78
2023-03-06T21:46:54.658Z,99471.63
2023-03-06T21:49:42.296Z,99481.78
2023-03-06T21:52:30.136Z,99474.97
2023-03-06T21:55:18.178Z,99434.81
2023-03-06T21:58:05.933Z,99472.03
2023-03-06T22:00:53.688Z,99477.16
2023-03-06T22:03:41.599Z,99471.00
2023-03-06T22:06:30.893Z,99490.59
2023-03-06T22:09:20.164Z,99487.91
2023-03-06T22:12:08.025Z,99456.84
2023-03-06T22:14:56.536Z,99485.41
2023-03-06T22:17:44.153Z,99481.25
2023-03-06T22:20:31.918Z,99475.97
2023-03-06T22:23:19.597Z,99467.19
2023-03-06T22:26:10.689Z,99441.34
2023-03-06T22:28:58.256Z,99466.50
2023-03-06T22:31:45.967Z,99472.69
2023-03-06T22:34:33.691Z,99466.66
2023-03-06T22:37:21.423Z,99466.50
2023-03-06T22:40:09.793Z,99455.50
2023-03-06T22:42:57.553Z,99412.69
2023-03-06T22:45:45.150Z,99453.09
2023-03-06T22:48:33.435Z,99455.75
2023-03-06T22:51:21.312Z,99469.50
2023-03-06T22:54:09.972Z,99468.22
2023-03-06T22:56:57.569Z,99443.06
2023-03-06T22:59:45.374Z,99446.03
2023-03-06T23:02:34.800Z,99441.47
2023-03-06T23:05:22.541Z,99427.59
2023-03-06T23:08:10.361Z,99436.56
2023-03-06T23:10:58.015Z,99419.72
2023-03-06T23:14:06.011Z,99440.25
2023-03-06T23:17:12.259Z,99436.13
2023-03-06T23:20:18.694Z,99452.53
2023-03-06T23:23:25.793Z,99440.41
2023-03-06T23:26:15.213Z,99436.75
2023-03-06T23:29:04.520Z,99439.63
2023-03-06T23:31:52.101Z,99441.91
2023-03-06T23:34:40.037Z,99439.03
2023-03-06T23:37:27.909Z,99437.75
2023-03-06T23:40:16.560Z,99428.34
2023-03-06T23:43:09.892Z,99428.16
2023-03-06T23:45:58.106Z,99341.56
2023-03-06T23:48:46.437Z,99414.63
2023-03-06T23:51:34.170Z,99427.13
2023-03-06T23:54:21.861Z,99415.47
2023-03-06T23:57:09.866Z,99418.03
2023-03-06T23:59:57.716Z,99306.94
